sensor_id;sensor_type;location;lat;lon;timestamp;P1;durP1;ratioP1;P2;durP2;ratioP2
76021;SDS011;64718;52.124;6.226;2023-05-07T00:01:32;10.80;;;8.75;;
76021;SDS011;64718;52.124;6.226;2023-05-07T00:04:00;10.55;;;9.23;;
76021;SDS011;64718;52.124;6.226;2023-05-07T00:06:27;13.15;;;9.80;;
76021;SDS011;64718;52.124;6.226;2023-05-07T00:08:54;14.07;;;10.02;;
76021;SDS011;64718;52.124;6.226;2023-05-07T00:11:20;14.23;;;10.60;;
76021;SDS011;64718;52.124;6.226;2023-05-07T00:13:47;16.40;;;12.38;;
76021;SDS011;64718;52.124;6.226;2023-05-07T00:16:14;15.85;;;12.07;;
76021;SDS011;64718;52.124;6.226;2023-05-07T00:18:40;12.48;;;10.30;;
76021;SDS011;64718;52.124;6.226;2023-05-07T00:21:08;14.23;;;10.02;;
76021;SDS011;64718;52.124;6.226;2023-05-07T00:23:34;12.93;;;10.57;;
76021;SDS011;64718;52.124;6.226;2023-05-07T00:26:01;15.25;;;11.60;;
76021;SDS011;64718;52.124;6.226;2023-05-07T00:28:27;15.45;;;12.70;;
76021;SDS011;64718;52.124;6.226;2023-05-07T00:30:54;17.17;;;12.73;;
76021;SDS011;64718;52.124;6.226;2023-05-07T00:33:21;18.10;;;12.88;;
76021;SDS011;64718;52.124;6.226;2023-05-07T00:35:47;15.48;;;12.13;;
76021;SDS011;64718;52.124;6.226;2023-05-07T00:38:15;14.60;;;11.57;;
76021;SDS011;64718;52.124;6.226;2023-05-07T00:40:42;16.70;;;12.88;;
76021;SDS011;64718;52.124;6.226;2023-05-07T00:43:08;16.25;;;11.77;;
76021;SDS011;64718;52.124;6.226;2023-05-07T00:45:35;15.75;;;11.95;;
76021;SDS011;64718;52.124;6.226;2023-05-07T00:48:01;17.35;;;12.98;;
76021;SDS011;64718;52.124;6.226;2023-05-07T00:50:29;20.52;;;14.00;;
76021;SDS011;64718;52.124;6.226;2023-05-07T00:52:57;17.98;;;14.27;;
76021;SDS011;64718;52.124;6.226;2023-05-07T00:55:26;18.67;;;14.65;;
76021;SDS011;64718;52.124;6.226;2023-05-07T00:57:53;17.58;;;13.23;;
76021;SDS011;64718;52.124;6.226;2023-05-07T01:00:19;16.25;;;13.73;;
76021;SDS011;64718;52.124;6.226;2023-05-07T01:02:46;21.27;;;14.05;;
76021;SDS011;64718;52.124;6.226;2023-05-07T01:05:13;18.45;;;13.93;;
76021;SDS011;64718;52.124;6.226;2023-05-07T01:07:41;19.25;;;13.73;;
76021;SDS011;64718;52.124;6.226;2023-05-07T01:10:09;19.15;;;12.90;;
76021;SDS011;64718;52.124;6.226;2023-05-07T01:12:38;18.70;;;13.02;;
76021;SDS011;64718;52.124;6.226;2023-05-07T01:15:07;17.20;;;12.02;;
76021;SDS011;64718;52.124;6.226;2023-05-07T01:17:35;21.67;;;14.30;;
76021;SDS011;64718;52.124;6.226;2023-05-07T01:20:02;18.70;;;13.82;;
76021;SDS011;64718;52.124;6.226;2023-05-07T01:22:31;18.70;;;12.55;;
76021;SDS011;64718;52.124;6.226;2023-05-07T01:24:59;15.98;;;11.27;;
76021;SDS011;64718;52.124;6.226;2023-05-07T01:27:26;19.15;;;14.20;;
76021;SDS011;64718;52.124;6.226;2023-05-07T01:29:53;21.85;;;15.35;;
76021;SDS011;64718;52.124;6.226;2023-05-07T01:32:21;19.83;;;14.02;;
76021;SDS011;64718;52.124;6.226;2023-05-07T01:34:53;22.20;;;14.60;;
76021;SDS011;64718;52.124;6.226;2023-05-07T01:37:21;20.27;;;15.20;;
76021;SDS011;64718;52.124;6.226;2023-05-07T01:39:50;21.58;;;15.65;;
76021;SDS011;64718;52.124;6.226;2023-05-07T01:42:16;23.70;;;15.20;;
76021;SDS011;64718;52.124;6.226;2023-05-07T01:44:43;22.45;;;16.02;;
76021;SDS011;64718;52.124;6.226;2023-05-07T01:47:10;23.33;;;15.77;;
76021;SDS011;64718;52.124;6.226;2023-05-07T01:49:37;22.25;;;16.40;;
76021;SDS011;64718;52.124;6.226;2023-05-07T01:52:04;23.55;;;16.20;;
76021;SDS011;64718;52.124;6.226;2023-05-07T01:54:30;23.73;;;16.05;;
76021;SDS011;64718;52.124;6.226;2023-05-07T01:56:58;22.65;;;17.27;;
76021;SDS011;64718;52.124;6.226;2023-05-07T01:59:25;24.63;;;16.50;;
76021;SDS011;64718;52.124;6.226;2023-05-07T02:01:52;23.70;;;16.02;;
76021;SDS011;64718;52.124;6.226;2023-05-07T02:04:18;23.08;;;15.45;;
76021;SDS011;64718;52.124;6.226;2023-05-07T02:06:45;23.83;;;16.73;;
76021;SDS011;64718;52.124;6.226;2023-05-07T02:09:13;24.90;;;16.88;;
76021;SDS011;64718;52.124;6.226;2023-05-07T02:11:41;22.42;;;15.13;;
76021;SDS011;64718;52.124;6.226;2023-05-07T02:14:08;21.80;;;15.52;;
76021;SDS011;64718;52.124;6.226;2023-05-07T02:16:35;23.25;;;16.50;;
76021;SDS011;64718;52.124;6.226;2023-05-07T02:19:01;24.27;;;16.45;;
76021;SDS011;64718;52.124;6.226;2023-05-07T02:21:28;25.05;;;17.88;;
76021;SDS011;64718;52.124;6.226;2023-05-07T02:23:55;21.08;;;15.68;;
76021;SDS011;64718;52.124;6.226;2023-05-07T02:26:21;24.08;;;17.27;;
76021;SDS011;64718;52.124;6.226;2023-05-07T02:28:48;19.92;;;14.90;;
76021;SDS011;64718;52.124;6.226;2023-05-07T02:31:15;24.45;;;16.60;;
76021;SDS011;64718;52.124;6.226;2023-05-07T02:33:42;22.52;;;16.98;;
76021;SDS011;64718;52.124;6.226;2023-05-07T02:36:10;22.92;;;16.52;;
76021;SDS011;64718;52.124;6.226;2023-05-07T02:38:37;22.23;;;16.05;;
76021;SDS011;64718;52.124;6.226;2023-05-07T02:41:04;21.60;;;15.32;;
76021;SDS011;64718;52.124;6.226;2023-05-07T02:43:30;21.00;;;14.55;;
76021;SDS011;64718;52.124;6.226;2023-05-07T02:46:00;23.98;;;16.70;;
76021;SDS011;64718;52.124;6.226;2023-05-07T02:48:29;24.10;;;18.15;;
76021;SDS011;64718;52.124;6.226;2023-05-07T02:50:55;22.77;;;16.42;;
76021;SDS011;64718;52.124;6.226;2023-05-07T02:53:22;24.67;;;17.25;;
76021;SDS011;64718;52.124;6.226;2023-05-07T02:58:17;21.92;;;15.27;;
76021;SDS011;64718;52.124;6.226;2023-05-07T03:00:43;22.70;;;15.30;;
76021;SDS011;64718;52.124;6.226;2023-05-07T03:03:10;21.63;;;15.23;;
76021;SDS011;64718;52.124;6.226;2023-05-07T03:05:38;26.13;;;16.75;;
76021;SDS011;64718;52.124;6.226;2023-05-07T03:08:04;24.52;;;17.50;;
76021;SDS011;64718;52.124;6.226;2023-05-07T03:10:31;23.42;;;16.45;;
76021;SDS011;64718;52.124;6.226;2023-05-07T03:12:57;21.95;;;16.17;;
76021;SDS011;64718;52.124;6.226;2023-05-07T03:15:24;21.42;;;15.77;;
76021;SDS011;64718;52.124;6.226;2023-05-07T03:17:50;23.27;;;16.38;;
76021;SDS011;64718;52.124;6.226;2023-05-07T03:20:17;21.23;;;15.27;;
76021;SDS011;64718;52.124;6.226;2023-05-07T03:22:45;23.83;;;18.42;;
76021;SDS011;64718;52.124;6.226;2023-05-07T03:25:12;25.50;;;17.77;;
76021;SDS011;64718;52.124;6.226;2023-05-07T03:27:39;25.17;;;16.85;;
76021;SDS011;64718;52.124;6.226;2023-05-07T03:30:07;23.45;;;16.77;;
76021;SDS011;64718;52.124;6.226;2023-05-07T03:32:34;24.70;;;17.33;;
76021;SDS011;64718;52.124;6.226;2023-05-07T03:35:01;23.60;;;16.67;;
76021;SDS011;64718;52.124;6.226;2023-05-07T03:37:28;24.63;;;16.88;;
76021;SDS011;64718;52.124;6.226;2023-05-07T03:39:56;24.05;;;16.98;;
76021;SDS011;64718;52.124;6.226;2023-05-07T03:42:22;22.25;;;16.23;;
76021;SDS011;64718;52.124;6.226;2023-05-07T03:44:49;24.08;;;17.52;;
76021;SDS011;64718;52.124;6.226;2023-05-07T03:47:15;23.98;;;17.80;;
76021;SDS011;64718;52.124;6.226;2023-05-07T03:49:42;24.75;;;15.98;;
76021;SDS011;64718;52.124;6.226;2023-05-07T03:52:08;26.70;;;17.17;;
76021;SDS011;64718;52.124;6.226;2023-05-07T03:54:35;27.42;;;18.05;;
76021;SDS011;64718;52.124;6.226;2023-05-07T03:57:02;26.90;;;18.00;;
76021;SDS011;64718;52.124;6.226;2023-05-07T03:59:29;27.50;;;17.20;;
76021;SDS011;64718;52.124;6.226;2023-05-07T04:01:55;28.98;;;19.50;;
76021;SDS011;64718;52.124;6.226;2023-05-07T04:04:22;29.10;;;19.17;;
76021;SDS011;64718;52.124;6.226;2023-05-07T04:06:48;29.60;;;18.85;;
76021;SDS011;64718;52.124;6.226;2023-05-07T04:09:15;30.10;;;19.00;;
76021;SDS011;64718;52.124;6.226;2023-05-07T04:11:41;28.10;;;19.92;;
76021;SDS011;64718;52.124;6.226;2023-05-07T04:14:11;26.60;;;18.95;;
76021;SDS011;64718;52.124;6.226;2023-05-07T04:16:37;28.90;;;19.55;;
76021;SDS011;64718;52.124;6.226;2023-05-07T04:19:03;26.40;;;17.83;;
76021;SDS011;64718;52.124;6.226;2023-05-07T04:21:30;28.52;;;18.58;;
76021;SDS011;64718;52.124;6.226;2023-05-07T04:23:57;23.60;;;17.65;;
76021;SDS011;64718;52.124;6.226;2023-05-07T04:26:23;25.63;;;18.48;;
76021;SDS011;64718;52.124;6.226;2023-05-07T04:28:50;26.45;;;17.08;;
76021;SDS011;64718;52.124;6.226;2023-05-07T04:31:18;26.42;;;17.40;;
76021;SDS011;64718;52.124;6.226;2023-05-07T04:33:44;34.58;;;18.52;;
76021;SDS011;64718;52.124;6.226;2023-05-07T04:36:11;25.90;;;17.35;;
76021;SDS011;64718;52.124;6.226;2023-05-07T04:38:38;28.27;;;18.70;;
76021;SDS011;64718;52.124;6.226;2023-05-07T04:41:05;28.23;;;18.02;;
76021;SDS011;64718;52.124;6.226;2023-05-07T04:43:32;28.17;;;19.05;;
76021;SDS011;64718;52.124;6.226;2023-05-07T04:45:58;25.08;;;17.75;;
76021;SDS011;64718;52.124;6.226;2023-05-07T04:48:26;27.17;;;17.83;;
76021;SDS011;64718;52.124;6.226;2023-05-07T04:50:53;25.40;;;17.73;;
76021;SDS011;64718;52.124;6.226;2023-05-07T04:53:20;24.88;;;17.23;;
76021;SDS011;64718;52.124;6.226;2023-05-07T04:55:47;28.40;;;18.25;;
76021;SDS011;64718;52.124;6.226;2023-05-07T04:58:13;23.30;;;16.10;;
76021;SDS011;64718;52.124;6.226;2023-05-07T05:00:40;24.90;;;15.95;;
76021;SDS011;64718;52.124;6.226;2023-05-07T05:03:07;25.88;;;16.27;;
76021;SDS011;64718;52.124;6.226;2023-05-07T05:05:35;25.50;;;16.02;;
76021;SDS011;64718;52.124;6.226;2023-05-07T05:08:01;25.35;;;16.08;;
76021;SDS011;64718;52.124;6.226;2023-05-07T05:10:28;25.75;;;16.27;;
76021;SDS011;64718;52.124;6.226;2023-05-07T05:12:55;24.92;;;14.80;;
76021;SDS011;64718;52.124;6.226;2023-05-07T05:15:21;23.80;;;15.35;;
76021;SDS011;64718;52.124;6.226;2023-05-07T05:17:48;24.58;;;15.20;;
76021;SDS011;64718;52.124;6.226;2023-05-07T05:20:14;22.60;;;14.68;;
76021;SDS011;64718;52.124;6.226;2023-05-07T05:22:42;24.20;;;15.52;;
76021;SDS011;64718;52.124;6.226;2023-05-07T05:25:09;24.23;;;15.77;;
76021;SDS011;64718;52.124;6.226;2023-05-07T05:27:35;26.25;;;14.75;;
76021;SDS011;64718;52.124;6.226;2023-05-07T05:30:02;21.00;;;13.75;;
76021;SDS011;64718;52.124;6.226;2023-05-07T05:34:57;21.15;;;13.85;;
76021;SDS011;64718;52.124;6.226;2023-05-07T05:37:23;21.48;;;13.95;;
76021;SDS011;64718;52.124;6.226;2023-05-07T05:39:51;23.27;;;14.52;;
76021;SDS011;64718;52.124;6.226;2023-05-07T05:42:19;22.67;;;14.20;;
76021;SDS011;64718;52.124;6.226;2023-05-07T05:44:46;19.10;;;12.57;;
76021;SDS011;64718;52.124;6.226;2023-05-07T05:47:12;26.13;;;15.02;;
76021;SDS011;64718;52.124;6.226;2023-05-07T05:49:39;20.10;;;13.20;;
76021;SDS011;64718;52.124;6.226;2023-05-07T05:52:08;24.40;;;14.57;;
76021;SDS011;64718;52.124;6.226;2023-05-07T05:54:34;24.67;;;15.50;;
76021;SDS011;64718;52.124;6.226;2023-05-07T05:57:02;24.10;;;14.07;;
76021;SDS011;64718;52.124;6.226;2023-05-07T05:59:31;23.38;;;15.07;;
76021;SDS011;64718;52.124;6.226;2023-05-07T06:01:57;23.00;;;14.77;;
76021;SDS011;64718;52.124;6.226;2023-05-07T06:04:23;23.58;;;15.43;;
76021;SDS011;64718;52.124;6.226;2023-05-07T06:06:50;26.08;;;13.80;;
76021;SDS011;64718;52.124;6.226;2023-05-07T06:09:17;22.95;;;14.75;;
76021;SDS011;64718;52.124;6.226;2023-05-07T06:11:43;25.35;;;15.43;;
76021;SDS011;64718;52.124;6.226;2023-05-07T06:14:11;25.10;;;15.48;;
76021;SDS011;64718;52.124;6.226;2023-05-07T06:16:38;23.75;;;15.00;;
76021;SDS011;64718;52.124;6.226;2023-05-07T06:19:04;22.95;;;14.35;;
76021;SDS011;64718;52.124;6.226;2023-05-07T06:21:31;22.92;;;14.52;;
76021;SDS011;64718;52.124;6.226;2023-05-07T06:23:57;24.45;;;15.23;;
76021;SDS011;64718;52.124;6.226;2023-05-07T06:26:24;26.02;;;14.98;;
76021;SDS011;64718;52.124;6.226;2023-05-07T06:28:50;26.50;;;15.60;;
76021;SDS011;64718;52.124;6.226;2023-05-07T06:31:19;23.45;;;14.98;;
76021;SDS011;64718;52.124;6.226;2023-05-07T06:33:46;24.70;;;16.13;;
76021;SDS011;64718;52.124;6.226;2023-05-07T06:36:13;23.10;;;15.98;;
76021;SDS011;64718;52.124;6.226;2023-05-07T06:38:39;24.80;;;14.63;;
76021;SDS011;64718;52.124;6.226;2023-05-07T06:41:06;27.92;;;16.70;;
76021;SDS011;64718;52.124;6.226;2023-05-07T06:43:32;25.05;;;15.63;;
76021;SDS011;64718;52.124;6.226;2023-05-07T06:45:59;24.58;;;15.38;;
76021;SDS011;64718;52.124;6.226;2023-05-07T06:48:27;25.17;;;15.50;;
76021;SDS011;64718;52.124;6.226;2023-05-07T06:50:53;26.35;;;15.85;;
76021;SDS011;64718;52.124;6.226;2023-05-07T06:53:20;27.65;;;15.73;;
76021;SDS011;64718;52.124;6.226;2023-05-07T06:55:47;27.65;;;15.27;;
76021;SDS011;64718;52.124;6.226;2023-05-07T06:58:13;25.63;;;15.93;;
76021;SDS011;64718;52.124;6.226;2023-05-07T07:00:40;26.23;;;15.75;;
76021;SDS011;64718;52.124;6.226;2023-05-07T07:03:06;23.17;;;15.23;;
76021;SDS011;64718;52.124;6.226;2023-05-07T07:05:35;24.67;;;16.42;;
76021;SDS011;64718;52.124;6.226;2023-05-07T07:08:01;26.13;;;15.43;;
76021;SDS011;64718;52.124;6.226;2023-05-07T07:10:27;24.42;;;15.35;;
76021;SDS011;64718;52.124;6.226;2023-05-07T07:12:54;24.98;;;15.80;;
76021;SDS011;64718;52.124;6.226;2023-05-07T07:15:20;25.35;;;15.70;;
76021;SDS011;64718;52.124;6.226;2023-05-07T07:17:47;21.20;;;14.82;;
76021;SDS011;64718;52.124;6.226;2023-05-07T07:20:14;26.45;;;15.13;;
76021;SDS011;64718;52.124;6.226;2023-05-07T07:22:42;25.23;;;16.17;;
76021;SDS011;64718;52.124;6.226;2023-05-07T07:25:08;24.17;;;14.93;;
76021;SDS011;64718;52.124;6.226;2023-05-07T07:27:36;22.08;;;14.90;;
76021;SDS011;64718;52.124;6.226;2023-05-07T07:30:03;22.85;;;15.63;;
76021;SDS011;64718;52.124;6.226;2023-05-07T07:32:30;24.98;;;15.50;;
76021;SDS011;64718;52.124;6.226;2023-05-07T07:34:58;23.20;;;14.82;;
76021;SDS011;64718;52.124;6.226;2023-05-07T07:37:24;24.75;;;14.95;;
76021;SDS011;64718;52.124;6.226;2023-05-07T07:39:52;22.98;;;14.45;;
76021;SDS011;64718;52.124;6.226;2023-05-07T07:42:19;25.70;;;15.93;;
76021;SDS011;64718;52.124;6.226;2023-05-07T07:44:45;23.75;;;15.35;;
76021;SDS011;64718;52.124;6.226;2023-05-07T07:47:12;23.98;;;15.05;;
76021;SDS011;64718;52.124;6.226;2023-05-07T07:49:38;22.23;;;14.93;;
76021;SDS011;64718;52.124;6.226;2023-05-07T07:52:05;20.85;;;14.00;;
76021;SDS011;64718;52.124;6.226;2023-05-07T07:54:31;23.75;;;14.65;;
76021;SDS011;64718;52.124;6.226;2023-05-07T07:56:59;24.75;;;15.70;;
76021;SDS011;64718;52.124;6.226;2023-05-07T07:59:26;22.92;;;15.60;;
76021;SDS011;64718;52.124;6.226;2023-05-07T08:01:53;24.13;;;15.02;;
76021;SDS011;64718;52.124;6.226;2023-05-07T08:04:21;22.85;;;14.20;;
76021;SDS011;64718;52.124;6.226;2023-05-07T08:06:48;21.42;;;14.13;;
76021;SDS011;64718;52.124;6.226;2023-05-07T08:09:14;22.40;;;15.88;;
76021;SDS011;64718;52.124;6.226;2023-05-07T08:11:41;19.92;;;14.90;;
76021;SDS011;64718;52.124;6.226;2023-05-07T08:14:09;20.50;;;14.75;;
76021;SDS011;64718;52.124;6.226;2023-05-07T08:16:36;22.65;;;14.68;;
76021;SDS011;64718;52.124;6.226;2023-05-07T08:19:02;22.58;;;14.43;;
76021;SDS011;64718;52.124;6.226;2023-05-07T08:21:29;21.10;;;14.20;;
76021;SDS011;64718;52.124;6.226;2023-05-07T08:23:55;23.00;;;14.43;;
76021;SDS011;64718;52.124;6.226;2023-05-07T08:26:22;21.83;;;14.25;;
76021;SDS011;64718;52.124;6.226;2023-05-07T08:28:48;21.25;;;13.55;;
76021;SDS011;64718;52.124;6.226;2023-05-07T08:31:16;20.23;;;13.50;;
76021;SDS011;64718;52.124;6.226;2023-05-07T08:33:43;18.98;;;13.98;;
76021;SDS011;64718;52.124;6.226;2023-05-07T08:36:09;19.60;;;13.73;;
76021;SDS011;64718;52.124;6.226;2023-05-07T08:38:36;20.80;;;14.15;;
76021;SDS011;64718;52.124;6.226;2023-05-07T08:41:02;20.90;;;14.60;;
76021;SDS011;64718;52.124;6.226;2023-05-07T08:43:29;19.15;;;13.43;;
76021;SDS011;64718;52.124;6.226;2023-05-07T08:45:58;20.30;;;13.77;;
76021;SDS011;64718;52.124;6.226;2023-05-07T08:48:29;17.10;;;13.23;;
76021;SDS011;64718;52.124;6.226;2023-05-07T08:50:57;17.20;;;11.70;;
76021;SDS011;64718;52.124;6.226;2023-05-07T08:53:24;17.50;;;12.05;;
76021;SDS011;64718;52.124;6.226;2023-05-07T08:55:50;18.15;;;12.90;;
76021;SDS011;64718;52.124;6.226;2023-05-07T08:58:17;16.58;;;12.63;;
76021;SDS011;64718;52.124;6.226;2023-05-07T09:00:44;18.42;;;13.93;;
76021;SDS011;64718;52.124;6.226;2023-05-07T09:03:11;16.58;;;12.95;;
76021;SDS011;64718;52.124;6.226;2023-05-07T09:05:40;17.30;;;12.98;;
76021;SDS011;64718;52.124;6.226;2023-05-07T09:08:08;20.10;;;12.13;;
76021;SDS011;64718;52.124;6.226;2023-05-07T09:10:35;17.08;;;13.05;;
76021;SDS011;64718;52.124;6.226;2023-05-07T09:13:02;17.73;;;12.02;;
76021;SDS011;64718;52.124;6.226;2023-05-07T09:15:29;16.50;;;12.30;;
76021;SDS011;64718;52.124;6.226;2023-05-07T09:17:58;15.05;;;11.60;;
76021;SDS011;64718;52.124;6.226;2023-05-07T09:20:26;16.88;;;11.75;;
76021;SDS011;64718;52.124;6.226;2023-05-07T09:22:56;18.02;;;12.52;;
76021;SDS011;64718;52.124;6.226;2023-05-07T09:25:27;16.98;;;12.15;;
76021;SDS011;64718;52.124;6.226;2023-05-07T09:27:54;17.00;;;12.45;;
76021;SDS011;64718;52.124;6.226;2023-05-07T09:30:21;18.40;;;12.85;;
76021;SDS011;64718;52.124;6.226;2023-05-07T09:32:47;17.95;;;12.68;;
76021;SDS011;64718;52.124;6.226;2023-05-07T09:35:14;17.25;;;13.43;;
76021;SDS011;64718;52.124;6.226;2023-05-07T09:37:42;15.85;;;12.07;;
76021;SDS011;64718;52.124;6.226;2023-05-07T09:40:10;18.90;;;13.85;;
76021;SDS011;64718;52.124;6.226;2023-05-07T09:42:46;20.13;;;12.43;;
76021;SDS011;64718;52.124;6.226;2023-05-07T09:45:13;20.38;;;13.20;;
76021;SDS011;64718;52.124;6.226;2023-05-07T09:47:39;15.82;;;11.73;;
76021;SDS011;64718;52.124;6.226;2023-05-07T09:50:10;18.35;;;12.88;;
76021;SDS011;64718;52.124;6.226;2023-05-07T09:52:38;17.80;;;12.38;;
76021;SDS011;64718;52.124;6.226;2023-05-07T09:55:07;16.75;;;12.52;;
76021;SDS011;64718;52.124;6.226;2023-05-07T09:57:35;17.42;;;12.20;;
76021;SDS011;64718;52.124;6.226;2023-05-07T10:00:02;15.63;;;12.13;;
76021;SDS011;64718;52.124;6.226;2023-05-07T10:02:30;18.17;;;13.40;;
76021;SDS011;64718;52.124;6.226;2023-05-07T10:05:01;19.00;;;14.32;;
76021;SDS011;64718;52.124;6.226;2023-05-07T10:07:28;18.00;;;14.07;;
76021;SDS011;64718;52.124;6.226;2023-05-07T10:09:55;16.38;;;12.85;;
76021;SDS011;64718;52.124;6.226;2023-05-07T10:12:22;18.92;;;13.07;;
76021;SDS011;64718;52.124;6.226;2023-05-07T10:14:51;16.75;;;13.10;;
76021;SDS011;64718;52.124;6.226;2023-05-07T10:17:19;16.48;;;12.13;;
76021;SDS011;64718;52.124;6.226;2023-05-07T10:19:46;15.75;;;11.70;;
76021;SDS011;64718;52.124;6.226;2023-05-07T10:22:13;17.52;;;12.75;;
76021;SDS011;64718;52.124;6.226;2023-05-07T10:27:10;18.85;;;13.20;;
76021;SDS011;64718;52.124;6.226;2023-05-07T10:29:42;15.32;;;11.45;;
76021;SDS011;64718;52.124;6.226;2023-05-07T10:32:27;16.55;;;12.38;;
76021;SDS011;64718;52.124;6.226;2023-05-07T10:35:02;16.42;;;12.68;;
76021;SDS011;64718;52.124;6.226;2023-05-07T10:37:32;16.55;;;12.23;;
76021;SDS011;64718;52.124;6.226;2023-05-07T10:40:00;17.13;;;13.18;;
76021;SDS011;64718;52.124;6.226;2023-05-07T10:42:27;15.82;;;12.32;;
76021;SDS011;64718;52.124;6.226;2023-05-07T10:44:54;15.85;;;11.48;;
76021;SDS011;64718;52.124;6.226;2023-05-07T10:47:20;16.30;;;12.15;;
76021;SDS011;64718;52.124;6.226;2023-05-07T10:55:49;12.65;;;10.15;;
76021;SDS011;64718;52.124;6.226;2023-05-07T11:00:55;12.98;;;9.85;;
76021;SDS011;64718;52.124;6.226;2023-05-07T11:03:23;11.93;;;9.98;;
76021;SDS011;64718;52.124;6.226;2023-05-07T11:06:07;12.38;;;10.20;;
76021;SDS011;64718;52.124;6.226;2023-05-07T11:08:54;12.57;;;10.13;;
76021;SDS011;64718;52.124;6.226;2023-05-07T11:14:42;12.50;;;10.48;;
76021;SDS011;64718;52.124;6.226;2023-05-07T11:17:10;14.57;;;10.70;;
76021;SDS011;64718;52.124;6.226;2023-05-07T11:19:50;13.70;;;11.05;;
76021;SDS011;64718;52.124;6.226;2023-05-07T11:25:17;11.98;;;10.00;;
76021;SDS011;64718;52.124;6.226;2023-05-07T11:27:44;13.98;;;11.02;;
76021;SDS011;64718;52.124;6.226;2023-05-07T11:30:13;14.32;;;11.05;;
76021;SDS011;64718;52.124;6.226;2023-05-07T11:32:44;13.85;;;10.95;;
76021;SDS011;64718;52.124;6.226;2023-05-07T11:35:13;13.90;;;10.93;;
76021;SDS011;64718;52.124;6.226;2023-05-07T11:37:41;13.10;;;10.13;;
76021;SDS011;64718;52.124;6.226;2023-05-07T11:40:10;14.65;;;11.27;;
76021;SDS011;64718;52.124;6.226;2023-05-07T11:42:39;13.70;;;10.68;;
76021;SDS011;64718;52.124;6.226;2023-05-07T11:45:08;15.52;;;11.30;;
76021;SDS011;64718;52.124;6.226;2023-05-07T11:47:35;13.45;;;11.93;;
76021;SDS011;64718;52.124;6.226;2023-05-07T11:50:02;13.65;;;10.45;;
76021;SDS011;64718;52.124;6.226;2023-05-07T11:52:30;10.57;;;8.65;;
76021;SDS011;64718;52.124;6.226;2023-05-07T11:54:57;14.05;;;10.40;;
76021;SDS011;64718;52.124;6.226;2023-05-07T11:57:27;11.18;;;7.95;;
76021;SDS011;64718;52.124;6.226;2023-05-07T11:59:53;10.00;;;8.43;;
76021;SDS011;64718;52.124;6.226;2023-05-07T12:02:20;10.82;;;8.55;;
76021;SDS011;64718;52.124;6.226;2023-05-07T12:04:47;10.25;;;7.97;;
76021;SDS011;64718;52.124;6.226;2023-05-07T12:07:14;8.80;;;6.50;;
76021;SDS011;64718;52.124;6.226;2023-05-07T12:09:41;9.55;;;8.57;;
76021;SDS011;64718;52.124;6.226;2023-05-07T12:12:08;8.80;;;7.80;;
76021;SDS011;64718;52.124;6.226;2023-05-07T12:14:38;11.15;;;8.52;;
76021;SDS011;64718;52.124;6.226;2023-05-07T12:17:05;10.38;;;8.10;;
76021;SDS011;64718;52.124;6.226;2023-05-07T12:19:33;9.75;;;7.85;;
76021;SDS011;64718;52.124;6.226;2023-05-07T12:22:01;13.55;;;8.90;;
76021;SDS011;64718;52.124;6.226;2023-05-07T12:24:28;12.75;;;9.88;;
76021;SDS011;64718;52.124;6.226;2023-05-07T12:26:55;11.60;;;9.02;;
76021;SDS011;64718;52.124;6.226;2023-05-07T12:29:21;12.05;;;9.00;;
76021;SDS011;64718;52.124;6.226;2023-05-07T12:31:50;13.23;;;9.77;;
76021;SDS011;64718;52.124;6.226;2023-05-07T12:34:17;15.23;;;9.52;;
76021;SDS011;64718;52.124;6.226;2023-05-07T12:36:43;11.20;;;9.38;;
76021;SDS011;64718;52.124;6.226;2023-05-07T12:39:10;11.38;;;9.10;;
76021;SDS011;64718;52.124;6.226;2023-05-07T12:41:51;11.00;;;8.30;;
76021;SDS011;64718;52.124;6.226;2023-05-07T12:44:19;13.60;;;9.40;;
76021;SDS011;64718;52.124;6.226;2023-05-07T12:46:48;9.23;;;6.82;;
76021;SDS011;64718;52.124;6.226;2023-05-07T12:49:16;9.23;;;6.68;;
76021;SDS011;64718;52.124;6.226;2023-05-07T12:51:43;8.63;;;7.22;;
76021;SDS011;64718;52.124;6.226;2023-05-07T12:54:09;10.60;;;7.72;;
76021;SDS011;64718;52.124;6.226;2023-05-07T12:56:36;8.20;;;7.28;;
76021;SDS011;64718;52.124;6.226;2023-05-07T12:59:02;9.98;;;6.97;;
76021;SDS011;64718;52.124;6.226;2023-05-07T13:01:29;14.95;;;7.30;;
76021;SDS011;64718;52.124;6.226;2023-05-07T13:03:58;8.68;;;6.78;;
76021;SDS011;64718;52.124;6.226;2023-05-07T13:06:29;7.65;;;6.20;;
76021;SDS011;64718;52.124;6.226;2023-05-07T13:08:56;8.85;;;7.22;;
76021;SDS011;64718;52.124;6.226;2023-05-07T13:11:23;9.30;;;6.82;;
76021;SDS011;64718;52.124;6.226;2023-05-07T13:16:17;10.05;;;6.80;;
76021;SDS011;64718;52.124;6.226;2023-05-07T13:18:43;8.45;;;5.97;;
76021;SDS011;64718;52.124;6.226;2023-05-07T13:21:10;6.80;;;6.10;;
76021;SDS011;64718;52.124;6.226;2023-05-07T13:26:17;7.18;;;5.82;;
76021;SDS011;64718;52.124;6.226;2023-05-07T13:28:45;9.80;;;6.20;;
76021;SDS011;64718;52.124;6.226;2023-05-07T13:31:11;9.65;;;6.95;;
76021;SDS011;64718;52.124;6.226;2023-05-07T13:33:38;9.05;;;6.40;;
76021;SDS011;64718;52.124;6.226;2023-05-07T13:36:05;8.85;;;6.88;;
76021;SDS011;64718;52.124;6.226;2023-05-07T13:38:31;9.32;;;7.35;;
76021;SDS011;64718;52.124;6.226;2023-05-07T13:40:58;10.75;;;7.57;;
76021;SDS011;64718;52.124;6.226;2023-05-07T13:43:26;10.02;;;7.38;;
76021;SDS011;64718;52.124;6.226;2023-05-07T13:45:52;10.65;;;7.25;;
76021;SDS011;64718;52.124;6.226;2023-05-07T13:48:19;10.45;;;7.00;;
76021;SDS011;64718;52.124;6.226;2023-05-07T13:50:45;9.38;;;7.78;;
76021;SDS011;64718;52.124;6.226;2023-05-07T13:53:12;10.80;;;7.40;;
76021;SDS011;64718;52.124;6.226;2023-05-07T13:55:40;9.38;;;6.68;;
76021;SDS011;64718;52.124;6.226;2023-05-07T13:58:07;9.35;;;6.97;;
76021;SDS011;64718;52.124;6.226;2023-05-07T14:00:35;8.43;;;6.82;;
76021;SDS011;64718;52.124;6.226;2023-05-07T14:03:01;8.82;;;6.97;;
76021;SDS011;64718;52.124;6.226;2023-05-07T14:05:28;8.77;;;6.72;;
76021;SDS011;64718;52.124;6.226;2023-05-07T14:07:55;8.40;;;6.35;;
76021;SDS011;64718;52.124;6.226;2023-05-07T14:10:23;10.00;;;7.00;;
76021;SDS011;64718;52.124;6.226;2023-05-07T14:12:49;8.25;;;6.80;;
76021;SDS011;64718;52.124;6.226;2023-05-07T14:15:17;9.30;;;6.53;;
76021;SDS011;64718;52.124;6.226;2023-05-07T14:17:45;9.00;;;7.25;;
76021;SDS011;64718;52.124;6.226;2023-05-07T14:20:12;9.05;;;6.35;;
76021;SDS011;64718;52.124;6.226;2023-05-07T14:22:39;7.63;;;5.90;;
76021;SDS011;64718;52.124;6.226;2023-05-07T14:25:06;9.02;;;6.35;;
76021;SDS011;64718;52.124;6.226;2023-05-07T14:27:34;8.18;;;6.22;;
76021;SDS011;64718;52.124;6.226;2023-05-07T14:30:01;7.90;;;6.57;;
76021;SDS011;64718;52.124;6.226;2023-05-07T14:32:27;10.10;;;7.40;;
76021;SDS011;64718;52.124;6.226;2023-05-07T14:34:55;8.77;;;6.68;;
76021;SDS011;64718;52.124;6.226;2023-05-07T14:37:23;8.93;;;6.78;;
76021;SDS011;64718;52.124;6.226;2023-05-07T14:39:49;8.30;;;6.43;;
76021;SDS011;64718;52.124;6.226;2023-05-07T14:42:16;9.70;;;6.78;;
76021;SDS011;64718;52.124;6.226;2023-05-07T14:44:42;7.45;;;6.05;;
76021;SDS011;64718;52.124;6.226;2023-05-07T14:47:10;10.43;;;7.40;;
76021;SDS011;64718;52.124;6.226;2023-05-07T14:49:36;9.02;;;6.80;;
76021;SDS011;64718;52.124;6.226;2023-05-07T14:52:04;8.45;;;6.05;;
76021;SDS011;64718;52.124;6.226;2023-05-07T14:54:33;8.70;;;5.75;;